sensor_id;sensor_type;location;lat;lon;timestamp;P1;durP1;ratioP1;P2;durP2;ratioP2
611;SDS011;293;53.888;11.464;2022-11-13T00:01:08;20.00;;;14.60;;
611;SDS011;293;53.888;11.464;2022-11-13T00:03:36;19.13;;;15.33;;
611;SDS011;293;53.888;11.464;2022-11-13T00:06:03;19.83;;;16.83;;
611;SDS011;293;53.888;11.464;2022-11-13T00:08:31;21.80;;;16.03;;
611;SDS011;293;53.888;11.464;2022-11-13T00:10:59;19.00;;;15.10;;
611;SDS011;293;53.888;11.464;2022-11-13T00:13:27;18.93;;;15.27;;
611;SDS011;293;53.888;11.464;2022-11-13T00:15:57;19.97;;;16.73;;
611;SDS011;293;53.888;11.464;2022-11-13T00:18:25;21.87;;;15.40;;
611;SDS011;293;53.888;11.464;2022-11-13T00:20:53;19.67;;;15.80;;
611;SDS011;293;53.888;11.464;2022-11-13T00:23:21;21.20;;;15.87;;
611;SDS011;293;53.888;11.464;2022-11-13T00:25:49;20.50;;;16.30;;
611;SDS011;293;53.888;11.464;2022-11-13T00:28:16;20.50;;;15.30;;
611;SDS011;293;53.888;11.464;2022-11-13T00:30:43;18.40;;;15.33;;
611;SDS011;293;53.888;11.464;2022-11-13T00:33:10;17.07;;;14.37;;
611;SDS011;293;53.888;11.464;2022-11-13T00:35:37;18.80;;;15.67;;
611;SDS011;293;53.888;11.464;2022-11-13T00:38:04;18.70;;;15.00;;
611;SDS011;293;53.888;11.464;2022-11-13T00:40:30;17.00;;;14.87;;
611;SDS011;293;53.888;11.464;2022-11-13T00:42:59;14.07;;;12.57;;
611;SDS011;293;53.888;11.464;2022-11-13T00:45:25;15.40;;;13.03;;
611;SDS011;293;53.888;11.464;2022-11-13T00:47:52;17.90;;;12.97;;
611;SDS011;293;53.888;11.464;2022-11-13T00:50:19;15.90;;;13.40;;
611;SDS011;293;53.888;11.464;2022-11-13T00:52:46;14.60;;;12.43;;
611;SDS011;293;53.888;11.464;2022-11-13T00:55:13;21.73;;;12.83;;
611;SDS011;293;53.888;11.464;2022-11-13T00:57:40;21.00;;;14.00;;
611;SDS011;293;53.888;11.464;2022-11-13T01:00:09;19.10;;;14.60;;
611;SDS011;293;53.888;11.464;2022-11-13T01:02:37;15.33;;;13.53;;
611;SDS011;293;53.888;11.464;2022-11-13T01:05:04;14.00;;;12.60;;
611;SDS011;293;53.888;11.464;2022-11-13T01:07:31;15.53;;;13.93;;
611;SDS011;293;53.888;11.464;2022-11-13T01:10:01;14.23;;;12.83;;
611;SDS011;293;53.888;11.464;2022-11-13T01:12:28;16.53;;;13.80;;
611;SDS011;293;53.888;11.464;2022-11-13T01:14:55;14.70;;;13.03;;
611;SDS011;293;53.888;11.464;2022-11-13T01:17:23;16.33;;;14.40;;
611;SDS011;293;53.888;11.464;2022-11-13T01:19:50;15.70;;;13.43;;
611;SDS011;293;53.888;11.464;2022-11-13T01:22:17;14.83;;;12.97;;
611;SDS011;293;53.888;11.464;2022-11-13T01:24:44;16.40;;;14.37;;
611;SDS011;293;53.888;11.464;2022-11-13T01:27:11;15.67;;;13.97;;
611;SDS011;293;53.888;11.464;2022-11-13T01:29:39;13.73;;;12.13;;
611;SDS011;293;53.888;11.464;2022-11-13T01:32:06;15.00;;;13.30;;
611;SDS011;293;53.888;11.464;2022-11-13T01:34:34;16.93;;;14.87;;
611;SDS011;293;53.888;11.464;2022-11-13T01:37:01;15.47;;;13.57;;
611;SDS011;293;53.888;11.464;2022-11-13T01:39:28;18.53;;;16.13;;
611;SDS011;293;53.888;11.464;2022-11-13T01:41:55;15.98;;;14.27;;
611;SDS011;293;53.888;11.464;2022-11-13T01:44:23;17.53;;;15.73;;
611;SDS011;293;53.888;11.464;2022-11-13T01:46:50;14.93;;;13.10;;
611;SDS011;293;53.888;11.464;2022-11-13T01:49:23;17.33;;;14.90;;
611;SDS011;293;53.888;11.464;2022-11-13T01:51:54;20.67;;;16.67;;
611;SDS011;293;53.888;11.464;2022-11-13T01:54:24;19.83;;;15.83;;
611;SDS011;293;53.888;11.464;2022-11-13T01:56:53;18.58;;;16.20;;
611;SDS011;293;53.888;11.464;2022-11-13T01:59:22;18.60;;;16.53;;
611;SDS011;293;53.888;11.464;2022-11-13T02:01:51;18.00;;;16.07;;
611;SDS011;293;53.888;11.464;2022-11-13T02:04:18;20.80;;;16.13;;
611;SDS011;293;53.888;11.464;2022-11-13T02:06:45;19.33;;;17.30;;
611;SDS011;293;53.888;11.464;2022-11-13T02:09:16;18.87;;;16.97;;
611;SDS011;293;53.888;11.464;2022-11-13T02:11:46;21.73;;;16.65;;
611;SDS011;293;53.888;11.464;2022-11-13T02:14:13;20.48;;;16.17;;
611;SDS011;293;53.888;11.464;2022-11-13T02:16:43;18.03;;;15.30;;
611;SDS011;293;53.888;11.464;2022-11-13T02:19:13;22.00;;;17.13;;
611;SDS011;293;53.888;11.464;2022-11-13T02:21:49;23.73;;;17.90;;
611;SDS011;293;53.888;11.464;2022-11-13T02:24:24;21.50;;;16.17;;
611;SDS011;293;53.888;11.464;2022-11-13T02:26:55;18.85;;;16.17;;
611;SDS011;293;53.888;11.464;2022-11-13T02:29:26;19.27;;;14.07;;
611;SDS011;293;53.888;11.464;2022-11-13T02:31:53;18.35;;;15.35;;
611;SDS011;293;53.888;11.464;2022-11-13T02:34:20;16.63;;;14.80;;
611;SDS011;293;53.888;11.464;2022-11-13T02:36:47;18.20;;;13.97;;
611;SDS011;293;53.888;11.464;2022-11-13T02:39:14;16.50;;;13.90;;
611;SDS011;293;53.888;11.464;2022-11-13T02:41:42;17.80;;;15.25;;
611;SDS011;293;53.888;11.464;2022-11-13T02:44:09;20.17;;;15.57;;
611;SDS011;293;53.888;11.464;2022-11-13T02:46:36;16.33;;;13.87;;
611;SDS011;293;53.888;11.464;2022-11-13T02:49:03;16.80;;;14.47;;
611;SDS011;293;53.888;11.464;2022-11-13T02:51:30;14.33;;;12.83;;
611;SDS011;293;53.888;11.464;2022-11-13T02:53:57;14.10;;;12.73;;
611;SDS011;293;53.888;11.464;2022-11-13T02:56:24;16.23;;;14.00;;
611;SDS011;293;53.888;11.464;2022-11-13T02:58:52;14.73;;;13.13;;
611;SDS011;293;53.888;11.464;2022-11-13T03:01:19;13.30;;;11.90;;
611;SDS011;293;53.888;11.464;2022-11-13T03:03:46;14.57;;;13.13;;
611;SDS011;293;53.888;11.464;2022-11-13T03:06:13;18.00;;;16.17;;
611;SDS011;293;53.888;11.464;2022-11-13T03:08:40;15.77;;;13.77;;
611;SDS011;293;53.888;11.464;2022-11-13T03:11:07;17.20;;;14.13;;
611;SDS011;293;53.888;11.464;2022-11-13T03:13:35;14.05;;;12.20;;
611;SDS011;293;53.888;11.464;2022-11-13T03:16:11;18.67;;;14.80;;
611;SDS011;293;53.888;11.464;2022-11-13T03:18:39;15.00;;;12.70;;
611;SDS011;293;53.888;11.464;2022-11-13T03:21:08;13.80;;;12.00;;
611;SDS011;293;53.888;11.464;2022-11-13T03:23:36;13.67;;;11.63;;
611;SDS011;293;53.888;11.464;2022-11-13T03:26:04;13.00;;;11.60;;
611;SDS011;293;53.888;11.464;2022-11-13T03:28:32;14.02;;;12.60;;
611;SDS011;293;53.888;11.464;2022-11-13T03:30:59;13.40;;;11.93;;
611;SDS011;293;53.888;11.464;2022-11-13T03:33:27;12.60;;;11.30;;
611;SDS011;293;53.888;11.464;2022-11-13T03:35:54;12.70;;;11.40;;
611;SDS011;293;53.888;11.464;2022-11-13T03:38:21;13.30;;;11.33;;
611;SDS011;293;53.888;11.464;2022-11-13T03:40:48;13.33;;;11.93;;
611;SDS011;293;53.888;11.464;2022-11-13T03:43:16;13.47;;;12.03;;
611;SDS011;293;53.888;11.464;2022-11-13T03:45:43;15.03;;;12.57;;
611;SDS011;293;53.888;11.464;2022-11-13T03:48:11;11.97;;;10.77;;
611;SDS011;293;53.888;11.464;2022-11-13T03:50:40;14.05;;;12.60;;
611;SDS011;293;53.888;11.464;2022-11-13T03:53:08;12.03;;;10.83;;
611;SDS011;293;53.888;11.464;2022-11-13T03:55:35;16.35;;;12.65;;
611;SDS011;293;53.888;11.464;2022-11-13T03:58:02;14.13;;;12.63;;
611;SDS011;293;53.888;11.464;2022-11-13T04:00:30;12.20;;;10.90;;
611;SDS011;293;53.888;11.464;2022-11-13T04:02:57;15.70;;;12.50;;
611;SDS011;293;53.888;11.464;2022-11-13T04:05:24;16.13;;;12.30;;
611;SDS011;293;53.888;11.464;2022-11-13T04:07:52;14.93;;;12.47;;
611;SDS011;293;53.888;11.464;2022-11-13T04:10:19;14.07;;;11.80;;
611;SDS011;293;53.888;11.464;2022-11-13T04:12:46;12.98;;;11.65;;
611;SDS011;293;53.888;11.464;2022-11-13T04:15:13;14.10;;;11.93;;
611;SDS011;293;53.888;11.464;2022-11-13T04:17:40;12.83;;;11.53;;
611;SDS011;293;53.888;11.464;2022-11-13T04:20:07;12.33;;;11.10;;
611;SDS011;293;53.888;11.464;2022-11-13T04:22:35;12.17;;;10.37;;
611;SDS011;293;53.888;11.464;2022-11-13T04:25:03;11.13;;;10.02;;
611;SDS011;293;53.888;11.464;2022-11-13T04:27:31;13.07;;;11.07;;
611;SDS011;293;53.888;11.464;2022-11-13T04:29:58;10.48;;;9.30;;
611;SDS011;293;53.888;11.464;2022-11-13T04:32:25;11.60;;;10.50;;
611;SDS011;293;53.888;11.464;2022-11-13T04:34:52;13.97;;;11.10;;
611;SDS011;293;53.888;11.464;2022-11-13T04:37:18;13.53;;;11.40;;
611;SDS011;293;53.888;11.464;2022-11-13T04:39:45;11.90;;;10.13;;
611;SDS011;293;53.888;11.464;2022-11-13T04:42:13;11.43;;;9.68;;
611;SDS011;293;53.888;11.464;2022-11-13T04:44:58;13.63;;;10.40;;
611;SDS011;293;53.888;11.464;2022-11-13T04:47:25;11.87;;;10.43;;
611;SDS011;293;53.888;11.464;2022-11-13T04:49:52;12.57;;;11.18;;
611;SDS011;293;53.888;11.464;2022-11-13T04:52:19;11.50;;;10.40;;
611;SDS011;293;53.888;11.464;2022-11-13T04:54:46;12.50;;;11.03;;
611;SDS011;293;53.888;11.464;2022-11-13T04:57:14;11.00;;;9.20;;
611;SDS011;293;53.888;11.464;2022-11-13T04:59:41;11.27;;;10.10;;
611;SDS011;293;53.888;11.464;2022-11-13T05:02:08;11.67;;;10.47;;
611;SDS011;293;53.888;11.464;2022-11-13T05:04:34;11.63;;;10.33;;
611;SDS011;293;53.888;11.464;2022-11-13T05:07:01;11.73;;;10.47;;
611;SDS011;293;53.888;11.464;2022-11-13T05:09:28;13.10;;;11.20;;
611;SDS011;293;53.888;11.464;2022-11-13T05:11:55;12.10;;;10.90;;
611;SDS011;293;53.888;11.464;2022-11-13T05:14:23;14.07;;;10.70;;
611;SDS011;293;53.888;11.464;2022-11-13T05:16:50;13.60;;;10.93;;
611;SDS011;293;53.888;11.464;2022-11-13T05:19:17;14.33;;;10.90;;
611;SDS011;293;53.888;11.464;2022-11-13T05:21:44;11.47;;;10.27;;
611;SDS011;293;53.888;11.464;2022-11-13T05:24:11;13.17;;;11.77;;
611;SDS011;293;53.888;11.464;2022-11-13T05:26:38;11.37;;;10.20;;
611;SDS011;293;53.888;11.464;2022-11-13T05:29:05;13.37;;;11.77;;
611;SDS011;293;53.888;11.464;2022-11-13T05:31:33;13.40;;;11.40;;
611;SDS011;293;53.888;11.464;2022-11-13T05:34:01;12.50;;;10.70;;
611;SDS011;293;53.888;11.464;2022-11-13T05:36:29;11.00;;;9.98;;
611;SDS011;293;53.888;11.464;2022-11-13T05:38:56;11.10;;;9.97;;
611;SDS011;293;53.888;11.464;2022-11-13T05:41:23;14.60;;;10.33;;
611;SDS011;293;53.888;11.464;2022-11-13T05:43:51;15.07;;;12.30;;
611;SDS011;293;53.888;11.464;2022-11-13T05:46:19;13.13;;;10.47;;
611;SDS011;293;53.888;11.464;2022-11-13T05:48:50;17.73;;;13.00;;
611;SDS011;293;53.888;11.464;2022-11-13T05:51:19;12.13;;;10.70;;
611;SDS011;293;53.888;11.464;2022-11-13T05:53:48;15.27;;;11.70;;
611;SDS011;293;53.888;11.464;2022-11-13T05:56:16;18.10;;;9.83;;
611;SDS011;293;53.888;11.464;2022-11-13T05:58:44;15.13;;;12.43;;
611;SDS011;293;53.888;11.464;2022-11-13T06:01:13;20.17;;;12.80;;
611;SDS011;293;53.888;11.464;2022-11-13T06:03:42;12.37;;;10.27;;
611;SDS011;293;53.888;11.464;2022-11-13T06:06:11;13.20;;;11.00;;
611;SDS011;293;53.888;11.464;2022-11-13T06:08:40;17.53;;;12.07;;
611;SDS011;293;53.888;11.464;2022-11-13T06:11:08;19.50;;;11.67;;
611;SDS011;293;53.888;11.464;2022-11-13T06:13:36;13.17;;;11.03;;
611;SDS011;293;53.888;11.464;2022-11-13T06:16:04;11.43;;;10.23;;
611;SDS011;293;53.888;11.464;2022-11-13T06:18:33;22.87;;;11.23;;
611;SDS011;293;53.888;11.464;2022-11-13T06:21:00;13.37;;;11.03;;
611;SDS011;293;53.888;11.464;2022-11-13T06:23:30;41.90;;;14.37;;
611;SDS011;293;53.888;11.464;2022-11-13T06:26:01;15.47;;;10.77;;
611;SDS011;293;53.888;11.464;2022-11-13T06:28:29;15.60;;;12.87;;
611;SDS011;293;53.888;11.464;2022-11-13T06:31:00;11.57;;;10.03;;
611;SDS011;293;53.888;11.464;2022-11-13T06:33:28;23.53;;;14.10;;
611;SDS011;293;53.888;11.464;2022-11-13T06:35:55;28.93;;;13.77;;
611;SDS011;293;53.888;11.464;2022-11-13T06:38:21;15.50;;;13.40;;
611;SDS011;293;53.888;11.464;2022-11-13T06:40:50;16.03;;;12.50;;
611;SDS011;293;53.888;11.464;2022-11-13T06:43:17;15.90;;;13.50;;
611;SDS011;293;53.888;11.464;2022-11-13T06:45:43;15.10;;;11.90;;
611;SDS011;293;53.888;11.464;2022-11-13T06:48:10;21.17;;;15.50;;
611;SDS011;293;53.888;11.464;2022-11-13T06:50:37;18.87;;;13.60;;
611;SDS011;293;53.888;11.464;2022-11-13T06:53:04;18.03;;;13.43;;
611;SDS011;293;53.888;11.464;2022-11-13T06:55:31;20.70;;;14.53;;
611;SDS011;293;53.888;11.464;2022-11-13T06:58:00;20.00;;;16.03;;
611;SDS011;293;53.888;11.464;2022-11-13T07:00:26;18.80;;;15.90;;
611;SDS011;293;53.888;11.464;2022-11-13T07:02:53;18.70;;;15.93;;
611;SDS011;293;53.888;11.464;2022-11-13T07:05:20;22.00;;;14.90;;
611;SDS011;293;53.888;11.464;2022-11-13T07:07:47;22.93;;;17.10;;
611;SDS011;293;53.888;11.464;2022-11-13T07:10:14;26.60;;;18.83;;
611;SDS011;293;53.888;11.464;2022-11-13T07:12:41;30.13;;;18.73;;
611;SDS011;293;53.888;11.464;2022-11-13T07:15:10;27.50;;;19.50;;
611;SDS011;293;53.888;11.464;2022-11-13T07:17:37;26.37;;;18.10;;
611;SDS011;293;53.888;11.464;2022-11-13T07:20:04;27.43;;;19.77;;
611;SDS011;293;53.888;11.464;2022-11-13T07:22:32;32.03;;;20.77;;
611;SDS011;293;53.888;11.464;2022-11-13T07:24:58;24.57;;;17.10;;
611;SDS011;293;53.888;11.464;2022-11-13T07:27:25;30.47;;;22.40;;
611;SDS011;293;53.888;11.464;2022-11-13T07:29:52;24.43;;;19.33;;
611;SDS011;293;53.888;11.464;2022-11-13T07:32:20;21.30;;;16.93;;
611;SDS011;293;53.888;11.464;2022-11-13T07:34:47;25.40;;;19.33;;
611;SDS011;293;53.888;11.464;2022-11-13T07:37:14;25.87;;;18.07;;
611;SDS011;293;53.888;11.464;2022-11-13T07:39:41;28.30;;;20.00;;
611;SDS011;293;53.888;11.464;2022-11-13T07:42:08;26.97;;;18.70;;
611;SDS011;293;53.888;11.464;2022-11-13T07:44:35;27.07;;;21.80;;
611;SDS011;293;53.888;11.464;2022-11-13T07:47:02;23.67;;;18.77;;
611;SDS011;293;53.888;11.464;2022-11-13T07:49:30;27.20;;;22.50;;
611;SDS011;293;53.888;11.464;2022-11-13T07:51:57;32.30;;;25.40;;
611;SDS011;293;53.888;11.464;2022-11-13T07:54:24;27.80;;;21.33;;
611;SDS011;293;53.888;11.464;2022-11-13T07:56:51;30.43;;;25.27;;
611;SDS011;293;53.888;11.464;2022-11-13T07:59:18;35.70;;;26.00;;
611;SDS011;293;53.888;11.464;2022-11-13T08:01:45;31.10;;;24.67;;
611;SDS011;293;53.888;11.464;2022-11-13T08:04:12;27.60;;;21.97;;
611;SDS011;293;53.888;11.464;2022-11-13T08:06:40;33.00;;;23.93;;
611;SDS011;293;53.888;11.464;2022-11-13T08:09:07;26.63;;;23.10;;
611;SDS011;293;53.888;11.464;2022-11-13T08:11:34;30.23;;;23.23;;
611;SDS011;293;53.888;11.464;2022-11-13T08:14:01;27.60;;;23.92;;
611;SDS011;293;53.888;11.464;2022-11-13T08:16:28;31.13;;;23.53;;
611;SDS011;293;53.888;11.464;2022-11-13T08:18:55;22.53;;;18.33;;
611;SDS011;293;53.888;11.464;2022-11-13T08:21:22;34.43;;;26.13;;
611;SDS011;293;53.888;11.464;2022-11-13T08:23:50;24.17;;;19.70;;
611;SDS011;293;53.888;11.464;2022-11-13T08:26:17;24.50;;;21.27;;
611;SDS011;293;53.888;11.464;2022-11-13T08:28:44;33.40;;;25.30;;
611;SDS011;293;53.888;11.464;2022-11-13T08:31:12;26.60;;;22.83;;
611;SDS011;293;53.888;11.464;2022-11-13T08:33:40;29.53;;;24.00;;
611;SDS011;293;53.888;11.464;2022-11-13T08:36:08;26.07;;;23.23;;
611;SDS011;293;53.888;11.464;2022-11-13T08:38:36;24.80;;;22.20;;
611;SDS011;293;53.888;11.464;2022-11-13T08:41:05;26.73;;;23.10;;
611;SDS011;293;53.888;11.464;2022-11-13T08:43:32;29.40;;;23.20;;
611;SDS011;293;53.888;11.464;2022-11-13T08:45:59;25.97;;;22.40;;
611;SDS011;293;53.888;11.464;2022-11-13T08:48:26;21.37;;;19.07;;
611;SDS011;293;53.888;11.464;2022-11-13T08:50:53;28.00;;;24.50;;
611;SDS011;293;53.888;11.464;2022-11-13T08:53:21;26.57;;;23.50;;
611;SDS011;293;53.888;11.464;2022-11-13T08:55:49;32.87;;;29.40;;
611;SDS011;293;53.888;11.464;2022-11-13T08:58:18;22.87;;;20.50;;
611;SDS011;293;53.888;11.464;2022-11-13T09:00:45;27.87;;;22.63;;
611;SDS011;293;53.888;11.464;2022-11-13T09:03:12;20.17;;;18.03;;
611;SDS011;293;53.888;11.464;2022-11-13T09:05:39;24.93;;;20.10;;
611;SDS011;293;53.888;11.464;2022-11-13T09:08:06;20.53;;;17.80;;
611;SDS011;293;53.888;11.464;2022-11-13T09:10:34;17.20;;;15.40;;
611;SDS011;293;53.888;11.464;2022-11-13T09:13:01;21.27;;;18.90;;
611;SDS011;293;53.888;11.464;2022-11-13T09:15:31;22.47;;;18.17;;
611;SDS011;293;53.888;11.464;2022-11-13T09:17:58;20.50;;;18.40;;
611;SDS011;293;53.888;11.464;2022-11-13T09:20:27;22.83;;;18.93;;
611;SDS011;293;53.888;11.464;2022-11-13T09:22:55;21.10;;;18.70;;
611;SDS011;293;53.888;11.464;2022-11-13T09:25:23;19.07;;;17.07;;
611;SDS011;293;53.888;11.464;2022-11-13T09:27:51;22.90;;;20.60;;
611;SDS011;293;53.888;11.464;2022-11-13T09:30:18;54.08;;;45.83;;
611;SDS011;293;53.888;11.464;2022-11-13T09:32:47;25.73;;;21.43;;
611;SDS011;293;53.888;11.464;2022-11-13T09:35:17;19.97;;;17.87;;
611;SDS011;293;53.888;11.464;2022-11-13T09:37:57;21.10;;;18.90;;
611;SDS011;293;53.888;11.464;2022-11-13T09:40:26;20.97;;;17.50;;
611;SDS011;293;53.888;11.464;2022-11-13T09:42:56;19.97;;;17.17;;
611;SDS011;293;53.888;11.464;2022-11-13T09:45:24;18.03;;;16.13;;
611;SDS011;293;53.888;11.464;2022-11-13T09:47:52;16.73;;;14.90;;
611;SDS011;293;53.888;11.464;2022-11-13T09:50:22;17.73;;;15.83;;
611;SDS011;293;53.888;11.464;2022-11-13T09:52:52;20.70;;;18.47;;
611;SDS011;293;53.888;11.464;2022-11-13T09:55:21;18.93;;;16.93;;
611;SDS011;293;53.888;11.464;2022-11-13T09:57:55;18.80;;;16.87;;
611;SDS011;293;53.888;11.464;2022-11-13T10:00:28;18.93;;;16.90;;
611;SDS011;293;53.888;11.464;2022-11-13T10:03:10;19.27;;;17.37;;
611;SDS011;293;53.888;11.464;2022-11-13T10:05:49;18.83;;;16.47;;
611;SDS011;293;53.888;11.464;2022-11-13T10:08:23;19.00;;;16.17;;
611;SDS011;293;53.888;11.464;2022-11-13T10:10:55;15.73;;;14.23;;
611;SDS011;293;53.888;11.464;2022-11-13T10:13:27;20.50;;;15.77;;
611;SDS011;293;53.888;11.464;2022-11-13T10:16:01;16.23;;;14.53;;
611;SDS011;293;53.888;11.464;2022-11-13T10:18:36;19.10;;;16.90;;
611;SDS011;293;53.888;11.464;2022-11-13T10:21:08;17.30;;;15.47;;
611;SDS011;293;53.888;11.464;2022-11-13T10:23:41;15.80;;;14.20;;
611;SDS011;293;53.888;11.464;2022-11-13T10:26:14;16.43;;;14.73;;
611;SDS011;293;53.888;11.464;2022-11-13T10:28:42;18.60;;;16.87;;
611;SDS011;293;53.888;11.464;2022-11-13T10:31:09;17.97;;;15.20;;
611;SDS011;293;53.888;11.464;2022-11-13T10:33:38;18.60;;;16.77;;
611;SDS011;293;53.888;11.464;2022-11-13T10:36:07;18.03;;;15.63;;
611;SDS011;293;53.888;11.464;2022-11-13T10:38:42;16.37;;;14.73;;
611;SDS011;293;53.888;11.464;2022-11-13T10:41:14;15.30;;;13.73;;
611;SDS011;293;53.888;11.464;2022-11-13T10:43:49;14.70;;;13.20;;
611;SDS011;293;53.888;11.464;2022-11-13T10:46:18;18.47;;;14.90;;
611;SDS011;293;53.888;11.464;2022-11-13T10:48:48;16.80;;;15.03;;
611;SDS011;293;53.888;11.464;2022-11-13T10:51:20;17.10;;;15.23;;
611;SDS011;293;53.888;11.464;2022-11-13T10:53:49;15.90;;;14.30;;
611;SDS011;293;53.888;11.464;2022-11-13T10:56:29;16.30;;;14.03;;
611;SDS011;293;53.888;11.464;2022-11-13T10:59:01;19.23;;;17.20;;
611;SDS011;293;53.888;11.464;2022-11-13T11:01:29;16.43;;;14.67;;
611;SDS011;293;53.888;11.464;2022-11-13T11:03:58;17.87;;;16.17;;
611;SDS011;293;53.888;11.464;2022-11-13T11:06:31;17.33;;;14.43;;
611;SDS011;293;53.888;11.464;2022-11-13T11:09:07;17.33;;;15.73;;
611;SDS011;293;53.888;11.464;2022-11-13T11:11:45;16.93;;;15.30;;
611;SDS011;293;53.888;11.464;2022-11-13T11:14:41;17.07;;;15.03;;
611;SDS011;293;53.888;11.464;2022-11-13T11:17:26;19.73;;;17.23;;
611;SDS011;293;53.888;11.464;2022-11-13T11:20:15;20.10;;;18.00;;
611;SDS011;293;53.888;11.464;2022-11-13T11:22:48;23.17;;;17.13;;
611;SDS011;293;53.888;11.464;2022-11-13T11:25:19;21.73;;;18.10;;
611;SDS011;293;53.888;11.464;2022-11-13T11:27:55;17.53;;;15.83;;
611;SDS011;293;53.888;11.464;2022-11-13T11:30:28;24.10;;;17.07;;
611;SDS011;293;53.888;11.464;2022-11-13T11:33:02;19.37;;;16.50;;
611;SDS011;293;53.888;11.464;2022-11-13T11:35:37;18.80;;;16.90;;
611;SDS011;293;53.888;11.464;2022-11-13T11:38:09;19.90;;;17.90;;
611;SDS011;293;53.888;11.464;2022-11-13T11:40:42;15.90;;;14.20;;
611;SDS011;293;53.888;11.464;2022-11-13T11:43:15;16.70;;;15.10;;
611;SDS011;293;53.888;11.464;2022-11-13T11:45:45;19.57;;;17.50;;
611;SDS011;293;53.888;11.464;2022-11-13T11:48:14;23.13;;;17.33;;
611;SDS011;293;53.888;11.464;2022-11-13T11:50:46;18.57;;;16.77;;
611;SDS011;293;53.888;11.464;2022-11-13T11:53:23;17.87;;;16.00;;
611;SDS011;293;53.888;11.464;2022-11-13T11:56:03;18.53;;;15.17;;
611;SDS011;293;53.888;11.464;2022-11-13T12:01:48;18.37;;;16.50;;
611;SDS011;293;53.888;11.464;2022-11-13T12:04:30;18.07;;;15.87;;
611;SDS011;293;53.888;11.464;2022-11-13T12:07:14;18.53;;;16.73;;
611;SDS011;293;53.888;11.464;2022-11-13T12:09:54;20.00;;;17.90;;
611;SDS011;293;53.888;11.464;2022-11-13T12:12:31;23.23;;;18.30;;
611;SDS011;293;53.888;11.464;2022-11-13T12:15:08;18.00;;;15.43;;
611;SDS011;293;53.888;11.464;2022-11-13T12:17:46;22.97;;;18.20;;
611;SDS011;293;53.888;11.464;2022-11-13T12:20:27;18.63;;;15.60;;
611;SDS011;293;53.888;11.464;2022-11-13T12:23:03;17.80;;;16.00;;
611;SDS011;293;53.888;11.464;2022-11-13T12:25:40;18.13;;;16.23;;
611;SDS011;293;53.888;11.464;2022-11-13T12:28:13;19.30;;;15.97;;
611;SDS011;293;53.888;11.464;2022-11-13T12:30:46;19.10;;;17.07;;
611;SDS011;293;53.888;11.464;2022-11-13T12:33:24;18.77;;;15.10;;
611;SDS011;293;53.888;11.464;2022-11-13T12:35:59;18.77;;;16.50;;
611;SDS011;293;53.888;11.464;2022-11-13T12:38:32;22.47;;;17.00;;
611;SDS011;293;53.888;11.464;2022-11-13T12:41:07;22.30;;;17.70;;
611;SDS011;293;53.888;11.464;2022-11-13T12:44:02;17.40;;;15.47;;
611;SDS011;293;53.888;11.464;2022-11-13T12:46:40;19.73;;;16.80;;
611;SDS011;293;53.888;11.464;2022-11-13T12:49:14;17.77;;;14.23;;
611;SDS011;293;53.888;11.464;2022-11-13T12:51:52;17.93;;;14.50;;
611;SDS011;293;53.888;11.464;2022-11-13T12:54:25;18.30;;;15.60;;
611;SDS011;293;53.888;11.464;2022-11-13T12:57:03;23.07;;;19.53;;
611;SDS011;293;53.888;11.464;2022-11-13T12:59:43;22.90;;;17.43;;
611;SDS011;293;53.888;11.464;2022-11-13T13:05:23;21.13;;;17.27;;
611;SDS011;293;53.888;11.464;2022-11-13T13:11:02;21.70;;;18.33;;
611;SDS011;293;53.888;11.464;2022-11-13T13:13:39;22.23;;;17.80;;
611;SDS011;293;53.888;11.464;2022-11-13T13:16:19;20.30;;;16.30;;
611;SDS011;293;53.888;11.464;2022-11-13T13:18:49;18.80;;;16.90;;
611;SDS011;293;53.888;11.464;2022-11-13T13:21:16;21.23;;;16.97;;
611;SDS011;293;53.888;11.464;2022-11-13T13:23:45;17.23;;;15.53;;
611;SDS011;293;53.888;11.464;2022-11-13T13:26:16;21.00;;;17.60;;
611;SDS011;293;53.888;11.464;2022-11-13T13:28:48;19.73;;;17.63;;
611;SDS011;293;53.888;11.464;2022-11-13T13:31:21;21.57;;;17.47;;
611;SDS011;293;53.888;11.464;2022-11-13T13:33:56;23.07;;;15.30;;
611;SDS011;293;53.888;11.464;2022-11-13T13:36:35;19.93;;;17.13;;
611;SDS011;293;53.888;11.464;2022-11-13T13:39:09;22.77;;;17.00;;
611;SDS011;293;53.888;11.464;2022-11-13T13:41:52;17.70;;;15.70;;
611;SDS011;293;53.888;11.464;2022-11-13T13:44:40;20.83;;;16.90;;
611;SDS011;293;53.888;11.464;2022-11-13T13:47:19;19.87;;;16.13;;
611;SDS011;293;53.888;11.464;2022-11-13T13:49:49;18.37;;;15.40;;
611;SDS011;293;53.888;11.464;2022-11-13T13:52:23;17.10;;;14.60;;
611;SDS011;293;53.888;11.464;2022-11-13T13:54:53;18.70;;;15.33;;
611;SDS011;293;53.888;11.464;2022-11-13T13:57:22;23.13;;;15.67;;
611;SDS011;293;53.888;11.464;2022-11-13T13:59:51;16.77;;;14.87;;
611;SDS011;293;53.888;11.464;2022-11-13T14:02:18;17.50;;;15.07;;
611;SDS011;293;53.888;11.464;2022-11-13T14:04:47;19.07;;;13.97;;
611;SDS011;293;53.888;11.464;2022-11-13T14:07:23;17.53;;;15.10;;
611;SDS011;293;53.888;11.464;2022-11-13T14:10:03;18.27;;;14.73;;
611;SDS011;293;53.888;11.464;2022-11-13T14:12:33;18.43;;;14.90;;
611;SDS011;293;53.888;11.464;2022-11-13T14:15:02;21.23;;;16.20;;
611;SDS011;293;53.888;11.464;2022-11-13T14:17:30;17.47;;;15.17;;
611;SDS011;293;53.888;11.464;2022-11-13T14:19:58;19.40;;;15.97;;
611;SDS011;293;53.888;11.464;2022-11-13T14:22:25;19.27;;;16.70;;
611;SDS011;293;53.888;11.464;2022-11-13T14:24:53;19.07;;;15.37;;
611;SDS011;293;53.888;11.464;2022-11-13T14:27:23;19.70;;;17.57;;
611;SDS011;293;53.888;11.464;2022-11-13T14:29:54;23.60;;;16.43;;
611;SDS011;293;53.888;11.464;2022-11-13T14:32:23;22.97;;;16.13;;
611;SDS011;293;53.888;11.464;2022-11-13T14:34:54;20.83;;;16.80;;
611;SDS011;293;53.888;11.464;2022-11-13T14:37:24;20.13;;;14.50;;
611;SDS011;293;53.888;11.464;2022-11-13T14:39:56;19.90;;;16.33;;
611;SDS011;293;53.888;11.464;2022-11-13T14:42:26;20.53;;;17.07;;
611;SDS011;293;53.888;11.464;2022-11-13T14:45:15;22.13;;;17.10;;
611;SDS011;293;53.888;11.464;2022-11-13T14:47:53;17.30;;;14.80;;
611;SDS011;293;53.888;11.464;2022-11-13T14:50:23;18.17;;;15.40;;
611;SDS011;293;53.888;11.464;2022-11-13T14:52:55;20.77;;;14.40;;
611;SDS011;293;53.888;11.464;2022-11-13T14:55:24;19.90;;;15.50;;
611;SDS011;293;53.888;11.464;2022-11-13T14:57:53;22.90;;;15.80;;
611;SDS011;293;53.888;11.464;2022-11-13T15:00:26;18.77;;;15.00;;
611;SDS011;293;53.888;11.464;2022-11-13T15:02:56;18.10;;;15.00;;
611;SDS011;293;53.888;11.464;2022-11-13T15:05:23;17.90;;;15.40;;
611;SDS011;293;53.888;11.464;2022-11-13T15:07:50;18.53;;;14.27;;
611;SDS011;293;53.888;11.464;2022-11-13T15:10:20;17.20;;;11.87;;
611;SDS011;293;53.888;11.464;2022-11-13T15:12:48;17.70;;;14.00;;
611;SDS011;293;53.888;11.464;2022-11-13T15:15:15;16.43;;;12.63;;
611;SDS011;293;53.888;11.464;2022-11-13T15:17:45;14.67;;;12.07;;
611;SDS011;293;53.888;11.464;2022-11-13T15:20:15;14.00;;;11.80;;
611;SDS011;293;53.888;11.464;2022-11-13T15:22:43;14.57;;;11.60;;
611;SDS011;293;53.888;11.464;2022-11-13T15:25:13;13.50;;;10.77;;
611;SDS011;293;53.888;11.464;2022-11-13T15:27:41;14.03;;;11.37;;